Time;durP1;ratioP1;P1;durP2;ratioP2;P2;SDS_P1;SDS_P2;PMS_P1;PMS_P2;Temp;Humidity;BMP_temperature;BMP_pressure;BME280_temperature;BME280_humidity;BME280_pressure;Samples;Min_cycle;Max_cycle;Signal;HPM_P1;HPM_P2
2023/03/09 00:00:48;;;;;;;;;;;10.00;99.90;;;;;;4858557;29;19935;-64
2023/03/09 00:03:20;;;;;;;;;;;10.00;99.90;;;;;;4860532;29;19928;-64
2023/03/09 00:05:54;;;;;;;;;;;10.00;99.90;;;;;;4863215;29;19938;-65
2023/03/09 00:08:29;;;;;;;;;;;10.00;99.90;;;;;;4877441;29;19967;-65
2023/03/09 00:11:03;;;;;;;;;;;10.00;99.90;;;;;;4886073;29;19928;-64
2023/03/09 00:13:30;;;;;;;;;;;10.10;99.90;;;;;;4875379;29;20512;-65
2023/03/09 00:16:08;;;;;;;;;;;10.10;99.90;;;;;;4860242;29;20384;-65
2023/03/09 00:18:35;;;;;;;;;;;10.20;99.90;;;;;;4864798;29;19932;-66
2023/03/09 00:21:02;;;;;;;;;;;10.20;99.90;;;;;;4876903;29;19927;-65
2023/03/09 00:23:36;;;;;;;;;;;10.20;99.90;;;;;;4877168;29;20598;-65
2023/03/09 00:26:09;;;;;;;;;;;10.10;99.90;;;;;;4875694;29;19927;-65
2023/03/09 00:28:40;;;;;;;;;;;10.00;99.90;;;;;;4875776;29;19939;-65
2023/03/09 00:31:12;;;;;;;;;;;10.10;99.90;;;;;;4861294;29;19928;-65
2023/03/09 00:33:46;;;;;;;;;;;10.00;99.90;;;;;;4877758;29;19932;-64
2023/03/09 00:36:18;;;;;;;;;;;10.00;99.90;;;;;;4884177;29;19935;-64
2023/03/09 00:38:51;;;;;;;;;;;10.00;99.90;;;;;;4868919;29;19928;-65
2023/03/09 00:41:18;;;;;;;;;;;10.00;99.90;;;;;;4876345;29;19928;-64
2023/03/09 00:43:45;;;;;;;;;;;10.00;99.90;;;;;;4877289;29;19935;-65
2023/03/09 00:46:17;;;;;;;;;;;10.00;99.90;;;;;;4887754;29;19963;-65
2023/03/09 00:48:45;;;;;;;;;;;10.00;99.90;;;;;;4876626;29;19928;-64
2023/03/09 00:51:16;;;;;;;;;;;9.90;99.90;;;;;;4870714;29;19939;-64
2023/03/09 00:53:48;;;;;;;;;;;9.90;99.90;;;;;;4875085;29;19992;-64
2023/03/09 00:56:25;;;;;;;;;;;9.90;99.90;;;;;;4877398;29;20413;-65
2023/03/09 00:58:57;;;;;;;;;;;10.00;99.90;;;;;;4874943;29;19929;-64
2023/03/09 01:01:29;;;;;;;;;;;10.00;99.90;;;;;;4860420;29;20018;-64
2023/03/09 01:04:03;;;;;;;;;;;9.80;99.90;;;;;;4863790;29;19928;-65
2023/03/09 01:06:35;;;;;;;;;;;9.80;99.90;;;;;;4870272;29;19969;-65
2023/03/09 01:09:07;;;;;;;;;;;9.80;99.90;;;;;;4874771;29;19976;-65
2023/03/09 01:11:39;;;;;;;;;;;9.70;99.90;;;;;;4875523;29;20417;-65
2023/03/09 01:14:11;;;;;;;;;;;9.70;99.90;;;;;;4883987;29;19928;-64
2023/03/09 01:16:42;;;;;;;;;;;9.70;99.90;;;;;;4874953;29;19928;-65
2023/03/09 01:19:14;;;;;;;;;;;9.70;99.90;;;;;;4878112;29;19934;-65
2023/03/09 01:21:41;;;;;;;;;;;9.70;99.90;;;;;;4878740;29;19939;-65
2023/03/09 01:24:14;;;;;;;;;;;9.70;99.90;;;;;;4873956;29;20457;-65
2023/03/09 01:26:40;;;;;;;;;;;9.70;99.90;;;;;;4861222;29;19931;-64
2023/03/09 01:29:12;;;;;;;;;;;9.70;99.90;;;;;;4869966;29;20302;-64
2023/03/09 01:31:44;;;;;;;;;;;9.70;99.90;;;;;;4873364;29;19931;-64
2023/03/09 01:34:15;;;;;;;;;;;9.70;99.90;;;;;;4875927;29;20321;-64
2023/03/09 01:36:47;;;;;;;;;;;9.70;99.90;;;;;;4876584;29;19992;-64
2023/03/09 01:39:19;;;;;;;;;;;9.80;99.90;;;;;;4874379;29;20312;-64
2023/03/09 01:41:51;;;;;;;;;;;9.80;99.90;;;;;;4875288;29;19932;-64
2023/03/09 01:44:23;;;;;;;;;;;9.80;99.90;;;;;;4854300;29;20386;-64
2023/03/09 01:46:50;;;;;;;;;;;9.70;99.90;;;;;;4874447;29;20405;-65
2023/03/09 01:49:37;;;;;;;;;;;9.70;99.90;;;;;;4860366;29;20432;-64
2023/03/09 01:52:12;;;;;;;;;;;9.70;99.90;;;;;;4869615;29;19928;-64
2023/03/09 01:55:00;;;;;;;;;;;9.70;99.90;;;;;;4874258;29;19928;-64
2023/03/09 01:57:37;;;;;;;;;;;9.70;99.90;;;;;;4872614;29;20023;-65
2023/03/09 02:00:13;;;;;;;;;;;9.90;99.90;;;;;;4867783;29;19928;-65
2023/03/09 02:02:58;;;;;;;;;;;10.00;99.90;;;;;;4874025;29;19932;-63
2023/03/09 02:05:39;;;;;;;;;;;9.90;99.90;;;;;;4874217;29;19932;-64
2023/03/09 02:08:14;;;;;;;;;;;9.80;99.90;;;;;;4867780;29;20015;-63
2023/03/09 02:10:56;;;;;;;;;;;9.70;99.90;;;;;;4872484;29;20018;-64
2023/03/09 02:13:29;;;;;;;;;;;9.60;99.90;;;;;;4875024;29;19927;-64
2023/03/09 02:16:01;;;;;;;;;;;9.60;99.90;;;;;;4862373;29;19927;-64
2023/03/09 02:18:32;;;;;;;;;;;9.40;99.90;;;;;;4861593;29;20408;-64
2023/03/09 02:21:07;;;;;;;;;;;9.20;99.90;;;;;;4874185;29;19984;-64
2023/03/09 02:23:44;;;;;;;;;;;9.10;99.90;;;;;;4858728;29;19935;-64
2023/03/09 02:26:20;;;;;;;;;;;9.00;99.90;;;;;;4857233;29;20143;-64
2023/03/09 02:28:55;;;;;;;;;;;8.90;99.90;;;;;;4863454;29;20146;-64
2023/03/09 02:31:27;;;;;;;;;;;8.90;99.90;;;;;;4865328;29;19932;-64
2023/03/09 02:33:54;;;;;;;;;;;8.90;99.90;;;;;;4886805;29;20401;-65
2023/03/09 02:36:26;;;;;;;;;;;8.90;99.90;;;;;;4874191;29;20414;-65
2023/03/09 02:39:09;;;;;;;;;;;8.90;99.90;;;;;;4870432;29;19931;-65
2023/03/09 02:41:41;;;;;;;;;;;8.90;99.90;;;;;;4875905;29;19928;-69
2023/03/09 02:44:17;;;;;;;;;;;8.90;99.90;;;;;;4869179;29;19931;-64
2023/03/09 02:46:44;;;;;;;;;;;8.90;99.90;;;;;;4874833;29;19928;-65
2023/03/09 02:49:17;;;;;;;;;;;8.80;99.90;;;;;;4869215;29;20374;-65
2023/03/09 02:51:49;;;;;;;;;;;8.80;99.90;;;;;;4873531;29;20369;-65
2023/03/09 02:54:21;;;;;;;;;;;8.70;99.90;;;;;;4874920;29;19932;-64
2023/03/09 02:56:53;;;;;;;;;;;8.70;99.90;;;;;;4871162;29;19932;-65
2023/03/09 02:59:24;;;;;;;;;;;8.70;99.90;;;;;;4871877;29;19928;-65
2023/03/09 03:01:56;;;;;;;;;;;8.60;99.90;;;;;;4874820;29;20131;-64
2023/03/09 03:04:29;;;;;;;;;;;8.60;99.90;;;;;;4875513;29;20022;-65
2023/03/09 03:07:01;;;;;;;;;;;8.60;99.90;;;;;;4874758;29;19938;-64
2023/03/09 03:09:33;;;;;;;;;;;8.60;99.90;;;;;;4873122;29;19932;-64
2023/03/09 03:12:00;;;;;;;;;;;8.50;99.90;;;;;;4860297;29;19928;-64
2023/03/09 03:14:31;;;;;;;;;;;8.50;99.90;;;;;;4871578;29;19935;-64
2023/03/09 03:16:58;;;;;;;;;;;8.50;99.90;;;;;;4875132;29;19936;-64
2023/03/09 03:19:32;;;;;;;;;;;8.50;99.90;;;;;;4854735;29;20409;-64
2023/03/09 03:22:05;;;;;;;;;;;8.50;99.90;;;;;;4873888;29;20405;-64
2023/03/09 03:24:38;;;;;;;;;;;8.50;99.90;;;;;;4871393;29;20423;-64
2023/03/09 03:27:05;;;;;;;;;;;8.50;99.90;;;;;;4874714;29;20500;-64
2023/03/09 03:29:37;;;;;;;;;;;8.50;99.90;;;;;;4870530;29;19928;-65
2023/03/09 03:32:09;;;;;;;;;;;8.60;99.90;;;;;;4882919;29;19980;-63
2023/03/09 03:34:41;;;;;;;;;;;8.60;99.90;;;;;;4872591;29;20000;-63
2023/03/09 03:37:13;;;;;;;;;;;8.80;99.90;;;;;;4873688;29;19931;-64
2023/03/09 03:39:47;;;;;;;;;;;8.70;99.90;;;;;;4870322;29;20022;-64
2023/03/09 03:42:19;;;;;;;;;;;8.60;99.90;;;;;;4877615;29;19956;-64
2023/03/09 03:44:51;;;;;;;;;;;8.60;99.90;;;;;;4877897;29;19934;-64
2023/03/09 03:47:22;;;;;;;;;;;8.70;99.90;;;;;;4860377;29;19937;-64
2023/03/09 03:49:54;;;;;;;;;;;8.70;99.90;;;;;;4862421;29;19928;-64
2023/03/09 03:52:26;;;;;;;;;;;8.70;99.90;;;;;;4876972;29;19928;-64
2023/03/09 03:54:58;;;;;;;;;;;8.60;99.90;;;;;;4855473;29;20409;-64
2023/03/09 03:57:31;;;;;;;;;;;8.60;99.90;;;;;;4862561;29;20023;-64
2023/03/09 04:00:09;;;;;;;;;;;8.60;99.90;;;;;;4860177;29;20384;-64
2023/03/09 04:02:43;;;;;;;;;;;8.50;99.90;;;;;;4875189;29;19956;-64
2023/03/09 04:05:20;;;;;;;;;;;8.50;99.90;;;;;;4881789;29;19928;-64
2023/03/09 04:07:52;;;;;;;;;;;8.40;99.90;;;;;;4874470;29;19992;-64
2023/03/09 04:10:19;;;;;;;;;;;8.50;99.90;;;;;;4872298;29;19984;-64
2023/03/09 04:12:52;;;;;;;;;;;8.50;99.90;;;;;;4873007;29;19928;-65
2023/03/09 04:15:23;;;;;;;;;;;8.50;99.90;;;;;;4875976;29;19928;-64
2023/03/09 04:17:55;;;;;;;;;;;8.50;99.90;;;;;;4871489;29;19927;-64
2023/03/09 04:20:28;;;;;;;;;;;8.60;99.90;;;;;;4879025;29;20411;-64
2023/03/09 04:22:55;;;;;;;;;;;8.60;99.90;;;;;;4874774;29;19939;-64
2023/03/09 04:25:28;;;;;;;;;;;8.60;99.90;;;;;;4871845;29;19928;-64
2023/03/09 04:28:02;;;;;;;;;;;8.60;99.90;;;;;;4862072;29;19944;-64
2023/03/09 04:30:41;;;;;;;;;;;8.60;99.90;;;;;;4878023;29;19928;-64
2023/03/09 04:33:13;;;;;;;;;;;8.60;99.90;;;;;;4869570;29;19943;-64
2023/03/09 04:35:45;;;;;;;;;;;8.60;99.90;;;;;;4877872;29;20580;-64
2023/03/09 04:38:23;;;;;;;;;;;8.70;99.90;;;;;;4874075;29;19928;-64
2023/03/09 04:40:56;;;;;;;;;;;8.60;99.90;;;;;;4883258;29;19963;-64
2023/03/09 04:43:29;;;;;;;;;;;8.60;99.90;;;;;;4862111;29;19932;-64
2023/03/09 04:46:01;;;;;;;;;;;8.60;99.90;;;;;;4876973;29;19928;-64
2023/03/09 04:48:32;;;;;;;;;;;8.70;99.90;;;;;;4868390;29;19935;-65
2023/03/09 04:51:04;;;;;;;;;;;8.70;99.90;;;;;;4877029;29;19928;-64
2023/03/09 04:53:37;;;;;;;;;;;8.70;99.90;;;;;;4876269;29;19931;-64
2023/03/09 04:56:10;;;;;;;;;;;8.70;99.90;;;;;;4871874;29;19934;-64
2023/03/09 04:58:43;;;;;;;;;;;8.70;99.90;;;;;;4862762;29;19932;-64
2023/03/09 05:01:15;;;;;;;;;;;8.70;99.90;;;;;;4872488;29;19928;-64
2023/03/09 05:03:47;;;;;;;;;;;8.80;99.90;;;;;;4859365;29;20374;-65
2023/03/09 05:06:19;;;;;;;;;;;8.80;99.90;;;;;;4861578;29;19939;-66
2023/03/09 05:08:52;;;;;;;;;;;8.80;99.90;;;;;;4875691;29;20581;-64
2023/03/09 05:11:24;;;;;;;;;;;8.80;99.90;;;;;;4871299;29;19935;-65
2023/03/09 05:13:57;;;;;;;;;;;8.80;99.90;;;;;;4881615;29;20023;-64
2023/03/09 05:16:30;;;;;;;;;;;8.80;99.90;;;;;;4877891;29;20373;-64
2023/03/09 05:19:03;;;;;;;;;;;8.70;99.90;;;;;;4877017;29;20475;-64
2023/03/09 05:21:37;;;;;;;;;;;8.70;99.90;;;;;;4875933;29;20298;-63
2023/03/09 05:24:12;;;;;;;;;;;8.70;99.90;;;;;;4865719;29;19928;-64
2023/03/09 05:26:39;;;;;;;;;;;8.70;99.90;;;;;;4874326;29;19932;-65
2023/03/09 05:29:14;;;;;;;;;;;8.60;99.90;;;;;;4862078;29;20579;-65
2023/03/09 05:31:45;;;;;;;;;;;8.60;99.90;;;;;;4876413;29;20001;-64
2023/03/09 05:34:17;;;;;;;;;;;8.60;99.90;;;;;;4875842;29;19932;-64
2023/03/09 05:36:44;;;;;;;;;;;8.60;99.90;;;;;;4876815;29;19939;-65
2023/03/09 05:39:21;;;;;;;;;;;8.50;99.90;;;;;;4890399;29;19928;-64
2023/03/09 05:41:53;;;;;;;;;;;8.40;99.90;;;;;;4872612;29;19935;-65
2023/03/09 05:44:31;;;;;;;;;;;8.40;99.90;;;;;;4873098;29;20353;-64
2023/03/09 05:47:05;;;;;;;;;;;8.40;99.90;;;;;;4873890;29;19932;-65
2023/03/09 05:49:37;;;;;;;;;;;8.50;99.90;;;;;;4873733;29;20470;-65
2023/03/09 05:52:08;;;;;;;;;;;8.40;99.90;;;;;;4872544;29;19929;-64
2023/03/09 05:54:36;;;;;;;;;;;8.40;99.90;;;;;;4875838;29;20464;-64
2023/03/09 05:57:12;;;;;;;;;;;8.40;99.90;;;;;;4876216;29;19936;-64
2023/03/09 05:59:47;;;;;;;;;;;8.30;99.90;;;;;;4874491;29;19935;-65
2023/03/09 06:02:19;;;;;;;;;;;8.20;99.90;;;;;;4866024;29;19981;-64
2023/03/09 06:04:51;;;;;;;;;;;8.20;99.90;;;;;;4858312;29;19928;-65
2023/03/09 06:07:22;;;;;;;;;;;8.10;99.90;;;;;;4870229;29;19928;-64
2023/03/09 06:09:54;;;;;;;;;;;8.10;99.90;;;;;;4872386;29;19935;-64
2023/03/09 06:12:27;;;;;;;;;;;8.10;99.90;;;;;;4875683;29;19936;-65
2023/03/09 06:14:59;;;;;;;;;;;8.10;99.90;;;;;;4872914;29;19928;-65
2023/03/09 06:17:34;;;;;;;;;;;8.00;99.90;;;;;;4873294;29;19931;-64
2023/03/09 06:20:10;;;;;;;;;;;8.10;99.90;;;;;;4875967;29;20027;-64
2023/03/09 06:22:46;;;;;;;;;;;8.10;99.90;;;;;;4861570;29;19935;-64
2023/03/09 06:25:18;;;;;;;;;;;8.10;99.90;;;;;;4874617;29;20071;-64
2023/03/09 06:27:50;;;;;;;;;;;8.20;99.90;;;;;;4873726;29;19935;-64
2023/03/09 06:30:23;;;;;;;;;;;8.20;99.90;;;;;;4885663;29;19938;-65
2023/03/09 06:32:57;;;;;;;;;;;8.20;99.90;;;;;;4873524;29;19935;-64
2023/03/09 06:35:33;;;;;;;;;;;8.20;99.90;;;;;;4872596;29;19935;-64
2023/03/09 06:38:07;;;;;;;;;;;8.20;99.90;;;;;;4859801;29;19935;-64
2023/03/09 06:40:43;;;;;;;;;;;8.10;99.90;;;;;;4872483;29;19996;-65
2023/03/09 06:43:15;;;;;;;;;;;8.10;99.90;;;;;;4887800;29;19931;-64
2023/03/09 06:45:47;;;;;;;;;;;8.10;99.90;;;;;;4867091;29;19928;-65
2023/03/09 06:48:19;;;;;;;;;;;8.10;99.90;;;;;;4877418;29;19979;-64
2023/03/09 06:50:51;;;;;;;;;;;8.00;99.90;;;;;;4873628;29;19935;-64
2023/03/09 06:53:23;;;;;;;;;;;8.00;99.90;;;;;;4876865;29;19946;-64
2023/03/09 06:56:01;;;;;;;;;;;8.00;99.90;;;;;;4874693;29;19974;-64
2023/03/09 06:58:34;;;;;;;;;;;8.00;99.90;;;;;;4879136;29;19932;-65
2023/03/09 07:01:10;;;;;;;;;;;8.00;99.90;;;;;;4873616;29;20348;-64
2023/03/09 07:03:42;;;;;;;;;;;8.00;99.90;;;;;;4862357;29;19933;-65
2023/03/09 07:06:14;;;;;;;;;;;8.00;99.90;;;;;;4874350;29;20313;-64
2023/03/09 07:08:43;;;;;;;;;;;8.00;99.90;;;;;;4875179;29;19963;-64
2023/03/09 07:11:16;;;;;;;;;;;8.00;99.90;;;;;;4874820;29;19928;-65
2023/03/09 07:13:48;;;;;;;;;;;8.00;99.90;;;;;;4876826;29;19934;-64
2023/03/09 07:16:20;;;;;;;;;;;8.10;99.90;;;;;;4848768;29;19936;-64
2023/03/09 07:18:51;;;;;;;;;;;8.20;99.90;;;;;;4875983;29;19932;-64
2023/03/09 07:21:23;;;;;;;;;;;8.30;99.90;;;;;;4872782;29;20389;-64
2023/03/09 07:23:56;;;;;;;;;;;8.30;99.90;;;;;;4869768;29;20036;-65
2023/03/09 07:26:27;;;;;;;;;;;8.40;99.90;;;;;;4877271;29;19929;-64
2023/03/09 07:29:00;;;;;;;;;;;8.40;99.90;;;;;;4870953;29;19936;-65
2023/03/09 07:31:32;;;;;;;;;;;8.50;99.90;;;;;;4874152;29;19928;-65
2023/03/09 07:34:04;;;;;;;;;;;8.50;99.90;;;;;;4873634;29;19932;-66
2023/03/09 07:36:30;;;;;;;;;;;8.60;99.90;;;;;;4864246;29;19928;-64
2023/03/09 07:39:02;;;;;;;;;;;8.60;99.90;;;;;;4876727;29;19928;-64
2023/03/09 07:41:34;;;;;;;;;;;8.70;99.90;;;;;;4877622;29;20290;-64
2023/03/09 07:44:06;;;;;;;;;;;8.70;99.90;;;;;;4873144;29;19983;-64
2023/03/09 07:46:38;;;;;;;;;;;8.80;99.90;;;;;;4880386;29;19939;-66
2023/03/09 07:49:05;;;;;;;;;;;8.80;99.90;;;;;;4876513;29;19932;-65
2023/03/09 07:51:37;;;;;;;;;;;8.80;99.90;;;;;;4871022;29;19942;-65
2023/03/09 07:54:10;;;;;;;;;;;8.90;99.90;;;;;;4864017;29;19928;-65
2023/03/09 07:56:43;;;;;;;;;;;9.00;99.90;;;;;;4876432;29;19931;-65
2023/03/09 07:59:15;;;;;;;;;;;9.00;99.90;;;;;;4877059;29;19934;-65
2023/03/09 08:01:47;;;;;;;;;;;9.10;99.90;;;;;;4872398;29;19929;-65
2023/03/09 08:04:19;;;;;;;;;;;9.10;99.90;;;;;;4862996;29;20402;-65
2023/03/09 08:06:51;;;;;;;;;;;9.20;99.90;;;;;;4870768;29;19928;-65
2023/03/09 08:09:23;;;;;;;;;;;9.20;99.90;;;;;;4877727;29;20436;-65
2023/03/09 08:11:55;;;;;;;;;;;9.20;99.90;;;;;;4880414;29;19928;-65
2023/03/09 08:14:21;;;;;;;;;;;9.20;99.90;;;;;;4877976;29;19939;-65
2023/03/09 08:16:53;;;;;;;;;;;9.30;99.90;;;;;;4876222;29;19935;-65
2023/03/09 08:19:21;;;;;;;;;;;9.30;99.90;;;;;;4867850;29;20339;-65
2023/03/09 08:21:53;;;;;;;;;;;9.20;99.90;;;;;;4873042;29;19928;-65
2023/03/09 08:24:25;;;;;;;;;;;9.30;99.90;;;;;;4871234;29;20301;-65
2023/03/09 08:26:57;;;;;;;;;;;9.30;99.90;;;;;;4879109;29;19934;-64
2023/03/09 08:29:29;;;;;;;;;;;9.30;99.90;;;;;;4875788;29;20532;-64
2023/03/09 08:31:56;;;;;;;;;;;9.30;99.90;;;;;;4875908;29;19931;-64
2023/03/09 08:34:28;;;;;;;;;;;9.40;99.90;;;;;;4872675;29;19928;-64
2023/03/09 08:37:00;;;;;;;;;;;9.50;99.90;;;;;;4885489;29;19992;-64
2023/03/09 08:39:32;;;;;;;;;;;9.50;99.90;;;;;;4871968;29;19928;-65
2023/03/09 08:42:04;;;;;;;;;;;9.50;99.90;;;;;;4876667;29;20389;-64
2023/03/09 08:44:31;;;;;;;;;;;9.50;99.90;;;;;;4877118;29;20484;-64
2023/03/09 08:47:03;;;;;;;;;;;9.50;99.90;;;;;;4865699;29;19933;-64
2023/03/09 08:49:29;;;;;;;;;;;9.50;99.90;;;;;;4873997;29;20375;-64
2023/03/09 08:52:01;;;;;;;;;;;9.50;99.90;;;;;;4870463;29;19932;-64
2023/03/09 08:54:33;;;;;;;;;;;9.50;99.90;;;;;;4879081;29;20769;-64
2023/03/09 08:57:06;;;;;;;;;;;9.50;99.90;;;;;;4869960;29;19928;-64
2023/03/09 08:59:37;;;;;;;;;;;9.60;99.90;;;;;;4874022;29;19935;-64
2023/03/09 09:02:14;;;;;;;;;;;9.60;99.90;;;;;;4873352;29;19984;-64
2023/03/09 09:04:46;;;;;;;;;;;9.70;99.90;;;;;;4876371;29;19935;-64
2023/03/09 09:07:14;;;;;;;;;;;9.70;99.90;;;;;;4875377;29;19939;-64
2023/03/09 09:09:45;;;;;;;;;;;9.80;99.90;;;;;;4872505;29;19935;-64
2023/03/09 09:12:17;;;;;;;;;;;9.80;99.90;;;;;;4870145;29;19927;-64
2023/03/09 09:14:50;;;;;;;;;;;9.80;99.90;;;;;;4876471;29;19928;-64
2023/03/09 09:17:22;;;;;;;;;;;9.80;99.90;;;;;;4876084;29;19928;-64
2023/03/09 09:19:54;;;;;;;;;;;9.90;99.90;;;;;;4860118;29;19935;-64
2023/03/09 09:22:26;;;;;;;;;;;10.00;99.90;;;;;;4869031;29;19932;-64
2023/03/09 09:24:59;;;;;;;;;;;9.90;99.90;;;;;;4873119;29;20359;-64
2023/03/09 09:27:30;;;;;;;;;;;10.00;99.90;;;;;;4866485;29;19936;-64
2023/03/09 09:29:57;;;;;;;;;;;10.10;99.90;;;;;;4876831;29;19936;-65
2023/03/09 09:32:28;;;;;;;;;;;10.30;99.90;;;;;;4874001;29;19938;-65
2023/03/09 09:35:01;;;;;;;;;;;10.50;99.90;;;;;;4860965;29;19935;-64
2023/03/09 09:37:28;;;;;;;;;;;10.60;99.90;;;;;;4876160;29;19935;-64
2023/03/09 09:40:00;;;;;;;;;;;10.60;99.90;;;;;;4870022;29;19935;-64
2023/03/09 09:42:37;;;;;;;;;;;10.50;99.90;;;;;;4866985;29;20627;-64
2023/03/09 09:45:26;;;;;;;;;;;10.50;99.90;;;;;;4873131;29;19938;-64
2023/03/09 09:48:00;;;;;;;;;;;10.50;99.90;;;;;;4870663;29;20041;-64
2023/03/09 09:50:55;;;;;;;;;;;10.50;99.90;;;;;;4872882;29;19935;-64
2023/03/09 09:53:56;;;;;;;;;;;10.50;99.90;;;;;;4872646;29;19936;-64
2023/03/09 09:56:25;;;;;;;;;;;10.40;99.90;;;;;;4873521;29;20011;-64
2023/03/09 09:59:01;;;;;;;;;;;10.40;99.90;;;;;;4874469;29;20004;-64
2023/03/09 10:01:39;;;;;;;;;;;10.40;99.90;;;;;;4878757;29;19935;-64
2023/03/09 10:04:17;;;;;;;;;;;10.40;99.90;;;;;;4870438;29;19928;-64
2023/03/09 10:06:50;;;;;;;;;;;10.50;99.90;;;;;;4873775;29;19932;-65
2023/03/09 10:09:26;;;;;;;;;;;10.50;99.90;;;;;;4869911;29;19938;-65
2023/03/09 10:12:06;;;;;;;;;;;10.50;99.90;;;;;;4865737;29;19928;-64
2023/03/09 10:14:44;;;;;;;;;;;10.60;99.90;;;;;;4873775;29;19954;-64
2023/03/09 10:17:20;;;;;;;;;;;10.80;99.90;;;;;;4867126;29;19928;-64
2023/03/09 10:19:52;;;;;;;;;;;10.90;99.90;;;;;;4863200;29;19992;-64
2023/03/09 10:22:24;;;;;;;;;;;11.10;99.90;;;;;;4871291;29;20036;-64
2023/03/09 10:24:52;;;;;;;;;;;11.10;99.90;;;;;;4870250;29;19928;-64
2023/03/09 10:27:27;;;;;;;;;;;11.10;99.90;;;;;;4861887;29;19939;-64
2023/03/09 10:30:00;;;;;;;;;;;11.10;99.90;;;;;;4872269;29;19928;-64
2023/03/09 10:32:51;;;;;;;;;;;11.10;99.90;;;;;;4875845;29;19928;-64
2023/03/09 10:35:36;;;;;;;;;;;11.20;99.90;;;;;;4884184;29;19928;-64
2023/03/09 10:38:14;;;;;;;;;;;11.10;99.90;;;;;;4885880;29;19928;-64
2023/03/09 10:40:48;;;;;;;;;;;11.00;99.90;;;;;;4872271;29;19952;-64
2023/03/09 10:43:27;;;;;;;;;;;10.90;99.90;;;;;;4872738;29;19987;-64
2023/03/09 10:46:08;;;;;;;;;;;10.80;99.90;;;;;;4871011;29;19935;-64
2023/03/09 10:48:35;;;;;;;;;;;10.80;99.90;;;;;;4875346;29;20024;-64
2023/03/09 10:51:20;;;;;;;;;;;10.80;99.90;;;;;;4866107;29;19939;-64
2023/03/09 10:53:56;;;;;;;;;;;10.70;99.90;;;;;;4872149;29;19984;-64
2023/03/09 10:56:23;;;;;;;;;;;10.90;99.90;;;;;;4874717;29;19932;-64
2023/03/09 10:59:07;;;;;;;;;;;11.00;99.90;;;;;;4868522;29;20600;-64
2023/03/09 11:01:44;;;;;;;;;;;11.00;99.90;;;;;;4870528;29;19983;-64
2023/03/09 11:04:21;;;;;;;;;;;11.10;99.90;;;;;;4869722;29;19928;-63
2023/03/09 11:06:53;;;;;;;;;;;11.30;99.90;;;;;;4871806;29;19928;-65
2023/03/09 11:09:30;;;;;;;;;;;11.60;99.90;;;;;;4874857;29;19983;-64
2023/03/09 11:12:17;;;;;;;;;;;11.90;99.90;;;;;;4874258;29;19947;-65
2023/03/09 11:14:51;;;;;;;;;;;12.00;99.90;;;;;;4872361;29;19942;-64
2023/03/09 11:17:32;;;;;;;;;;;11.90;99.90;;;;;;4872266;29;19928;-64
2023/03/09 11:20:10;;;;;;;;;;;11.80;99.90;;;;;;4879692;29;19932;-64
2023/03/09 11:22:38;;;;;;;;;;;11.70;99.90;;;;;;4861529;29;19936;-64
2023/03/09 11:25:08;;;;;;;;;;;11.70;99.90;;;;;;4873529;29;19936;-64
2023/03/09 11:27:36;;;;;;;;;;;11.70;99.90;;;;;;4875952;29;19954;-65
2023/03/09 11:30:16;;;;;;;;;;;11.90;99.90;;;;;;4874655;29;19935;-64
2023/03/09 11:32:49;;;;;;;;;;;12.20;99.90;;;;;;4873508;29;19928;-64
2023/03/09 11:35:16;;;;;;;;;;;12.50;99.90;;;;;;4868277;29;19934;-64
2023/03/09 11:37:58;;;;;;;;;;;12.50;99.90;;;;;;4873849;29;19928;-64
2023/03/09 11:40:28;;;;;;;;;;;12.60;99.90;;;;;;4871456;29;19936;-64
2023/03/09 11:42:59;;;;;;;;;;;12.20;99.90;;;;;;4881002;29;19951;-64
2023/03/09 11:45:33;;;;;;;;;;;12.10;99.90;;;;;;4868154;29;19928;-64
2023/03/09 11:48:13;;;;;;;;;;;12.10;99.90;;;;;;4871437;29;20036;-64
2023/03/09 11:51:01;;;;;;;;;;;12.10;99.90;;;;;;4870048;29;19935;-64
2023/03/09 11:53:34;;;;;;;;;;;12.10;99.90;;;;;;4870409;29;20429;-64
2023/03/09 11:56:22;;;;;;;;;;;12.20;99.90;;;;;;4871217;29;19928;-64
2023/03/09 11:59:11;;;;;;;;;;;12.40;99.90;;;;;;4873872;29;20290;-63
2023/03/09 12:02:04;;;;;;;;;;;12.40;99.90;;;;;;4877176;29;19934;-63
2023/03/09 12:04:36;;;;;;;;;;;12.50;99.90;;;;;;4873589;29;19928;-64
2023/03/09 12:07:12;;;;;;;;;;;12.50;99.90;;;;;;4874097;29;19974;-64
2023/03/09 12:09:53;;;;;;;;;;;12.60;99.90;;;;;;4876384;29;19932;-64
2023/03/09 12:12:31;;;;;;;;;;;12.70;99.90;;;;;;4872569;29;19928;-63
2023/03/09 12:15:15;;;;;;;;;;;12.60;99.90;;;;;;4868462;29;20457;-63
2023/03/09 12:17:54;;;;;;;;;;;12.70;99.90;;;;;;4877610;29;19928;-64
2023/03/09 12:20:32;;;;;;;;;;;12.90;99.90;;;;;;4873171;29;19935;-64
2023/03/09 12:23:04;;;;;;;;;;;12.80;99.90;;;;;;4871397;29;20287;-64
2023/03/09 12:25:36;;;;;;;;;;;12.80;99.90;;;;;;4877259;29;19928;-64
2023/03/09 12:28:18;;;;;;;;;;;12.90;99.90;;;;;;4867432;29;19932;-64
2023/03/09 12:30:51;;;;;;;;;;;12.80;99.90;;;;;;4876051;29;19999;-64
2023/03/09 12:33:41;;;;;;;;;;;12.90;99.90;;;;;;4871661;29;20904;-63
2023/03/09 12:36:24;;;;;;;;;;;12.90;99.90;;;;;;4886846;29;19980;-64
2023/03/09 12:39:14;;;;;;;;;;;13.00;99.90;;;;;;4874092;29;19988;-64
2023/03/09 12:41:58;;;;;;;;;;;13.20;99.90;;;;;;4870435;29;20476;-64
2023/03/09 12:44:52;;;;;;;;;;;13.20;99.90;;;;;;4869142;29;19928;-64
2023/03/09 12:47:31;;;;;;;;;;;13.20;99.90;;;;;;4872982;29;19936;-64
2023/03/09 12:49:58;;;;;;;;;;;13.10;99.90;;;;;;4888178;29;20031;-64
2023/03/09 12:52:47;;;;;;;;;;;13.00;99.90;;;;;;4856077;29;19964;-64
2023/03/09 12:55:20;;;;;;;;;;;12.80;99.90;;;;;;4874884;29;19928;-63
2023/03/09 12:57:48;;;;;;;;;;;12.70;99.90;;;;;;4872897;29;19935;-63
2023/03/09 13:00:29;;;;;;;;;;;12.80;99.90;;;;;;4872315;29;20068;-63
2023/03/09 13:03:15;;;;;;;;;;;13.00;99.90;;;;;;4875643;29;19936;-63
2023/03/09 13:05:48;;;;;;;;;;;13.40;99.90;;;;;;4875444;29;19928;-63
2023/03/09 13:08:35;;;;;;;;;;;13.50;99.90;;;;;;4872976;29;20429;-63
2023/03/09 13:11:25;;;;;;;;;;;13.40;99.90;;;;;;4871924;29;19936;-64
2023/03/09 13:13:58;;;;;;;;;;;13.40;99.90;;;;;;4874584;29;19932;-63
2023/03/09 13:17:04;;;;;;;;;;;13.60;99.90;;;;;;4876042;29;19931;-64
2023/03/09 13:19:35;;;;;;;;;;;13.70;99.90;;;;;;4880967;29;19935;-64
2023/03/09 13:22:10;;;;;;;;;;;13.50;99.90;;;;;;4875400;29;19935;-63
2023/03/09 13:24:42;;;;;;;;;;;13.30;99.90;;;;;;4875050;29;20604;-63
2023/03/09 13:27:17;;;;;;;;;;;13.20;99.90;;;;;;4869870;29;19935;-63
2023/03/09 13:29:52;;;;;;;;;;;13.20;99.90;;;;;;4885365;29;20417;-64
2023/03/09 13:32:38;;;;;;;;;;;13.30;99.90;;;;;;4868586;29;19928;-63
2023/03/09 13:35:17;;;;;;;;;;;13.50;99.90;;;;;;4866314;29;19947;-63
2023/03/09 13:37:51;;;;;;;;;;;13.50;99.90;;;;;;4875698;29;19931;-63
2023/03/09 13:40:29;;;;;;;;;;;13.20;99.90;;;;;;4874557;29;19932;-63
2023/03/09 13:43:04;;;;;;;;;;;12.80;99.90;;;;;;4871465;29;19932;-64
2023/03/09 13:45:36;;;;;;;;;;;12.70;99.90;;;;;;4878577;29;20428;-64
2023/03/09 13:48:11;;;;;;;;;;;12.60;99.90;;;;;;4856286;29;19936;-64
2023/03/09 13:50:44;;;;;;;;;;;12.40;99.90;;;;;;4873900;29;19931;-64
2023/03/09 13:53:15;;;;;;;;;;;12.30;99.90;;;;;;4866378;29;20389;-64
2023/03/09 13:56:13;;;;;;;;;;;12.30;99.90;;;;;;4875554;29;20382;-64
2023/03/09 13:58:46;;;;;;;;;;;12.30;99.90;;;;;;4870502;29;19927;-64
2023/03/09 14:01:18;;;;;;;;;;;12.40;99.90;;;;;;4866285;29;19938;-63
2023/03/09 14:03:51;;;;;;;;;;;12.50;99.90;;;;;;4875688;29;19935;-64
2023/03/09 14:06:34;;;;;;;;;;;12.60;99.90;;;;;;4869812;29;19936;-64
2023/03/09 14:09:17;;;;;;;;;;;12.60;99.90;;;;;;4868445;29;19928;-64
2023/03/09 14:11:49;;;;;;;;;;;12.70;99.90;;;;;;4872136;29;19940;-63
2023/03/09 14:14:22;;;;;;;;;;;13.00;99.90;;;;;;4852811;29;19955;-64
2023/03/09 14:16:54;;;;;;;;;;;13.10;99.90;;;;;;4865647;29;19931;-64
2023/03/09 14:19:30;;;;;;;;;;;13.10;99.90;;;;;;4874990;29;19935;-64
2023/03/09 14:22:01;;;;;;;;;;;13.00;99.90;;;;;;4879312;29;19932;-64
2023/03/09 14:24:37;;;;;;;;;;;12.90;99.90;;;;;;4865527;29;19928;-64
2023/03/09 14:27:12;;;;;;;;;;;12.80;99.90;;;;;;4868225;29;19942;-64
2023/03/09 14:29:44;;;;;;;;;;;12.70;99.90;;;;;;4873618;29;19939;-63
2023/03/09 14:32:27;;;;;;;;;;;12.70;99.90;;;;;;4871981;29;19940;-64
2023/03/09 14:35:18;;;;;;;;;;;12.60;99.90;;;;;;4868399;29;19928;-64
2023/03/09 14:37:53;;;;;;;;;;;12.70;99.90;;;;;;4867515;29;19928;-65
2023/03/09 14:40:32;;;;;;;;;;;12.70;99.90;;;;;;4874042;29;20515;-64
2023/03/09 14:43:23;;;;;;;;;;;12.70;99.90;;;;;;4869928;29;19938;-64
2023/03/09 14:46:08;;;;;;;;;;;12.70;99.90;;;;;;4874804;29;19939;-64
2023/03/09 14:48:40;;;;;;;;;;;12.80;99.90;;;;;;4873567;29;19950;-65
2023/03/09 14:51:14;;;;;;;;;;;13.00;99.90;;;;;;4874321;29;20571;-64
2023/03/09 14:54:09;;;;;;;;;;;13.10;99.90;;;;;;4875193;29;20412;-63
2023/03/09 14:56:40;;;;;;;;;;;13.00;99.90;;;;;;4875270;29;19932;-65
2023/03/09 14:59:10;;;;;;;;;;;12.70;99.90;;;;;;4873617;29;19963;-63
2023/03/09 15:01:53;;;;;;;;;;;12.80;99.90;;;;;;4871783;29;19980;-64
2023/03/09 15:04:27;;;;;;;;;;;12.80;99.90;;;;;;4872580;29;19928;-64